Time;durP1;ratioP1;P1;durP2;ratioP2;P2;SDS_P1;SDS_P2;PMS_P1;PMS_P2;Temp;Humidity;BMP_temperature;BMP_pressure;BME280_temperature;BME280_humidity;BME280_pressure;Samples;Min_cycle;Max_cycle;Signal;HPM_P1;HPM_P2
2022/04/24 00:01:56;;;;;;;10.77;8.68;;;;;;;;;;5056960;28;20063;-80
2022/04/24 00:04:24;;;;;;;14.18;8.65;;;;;;;;;;5067046;28;20488;-80
2022/04/24 00:06:52;;;;;;;14.43;9.48;;;;;;;;;;5064546;28;20052;-80
2022/04/24 00:09:18;;;;;;;19.90;9.68;;;;;;;;;;5066657;28;20425;-80
2022/04/24 00:11:44;;;;;;;11.02;9.32;;;;;;;;;;5064105;28;20474;-81
2022/04/24 00:14:11;;;;;;;12.38;9.43;;;;;;;;;;5067423;28;20031;-81
2022/04/24 00:16:38;;;;;;;11.70;10.07;;;;;;;;;;5061716;28;20290;-80
2022/04/24 00:19:04;;;;;;;14.73;10.20;;;;;;;;;;5063138;28;20036;-80
2022/04/24 00:21:31;;;;;;;14.55;9.93;;;;;;;;;;5041435;28;20025;-81
2022/04/24 00:23:57;;;;;;;16.88;10.23;;;;;;;;;;5061606;28;20025;-80
2022/04/24 00:26:23;;;;;;;14.32;10.18;;;;;;;;;;5058120;28;20044;-81
2022/04/24 00:28:49;;;;;;;15.43;9.75;;;;;;;;;;5060107;28;20032;-81
2022/04/24 00:31:15;;;;;;;14.15;9.63;;;;;;;;;;5055978;28;20058;-80
2022/04/24 00:33:41;;;;;;;12.85;9.65;;;;;;;;;;5061269;28;20040;-81
2022/04/24 00:36:07;;;;;;;13.15;9.45;;;;;;;;;;5063973;28;20043;-79
2022/04/24 00:38:33;;;;;;;14.85;10.48;;;;;;;;;;5042976;28;20039;-81
2022/04/24 00:40:59;;;;;;;13.70;10.05;;;;;;;;;;5065708;28;20048;-82
2022/04/24 00:43:25;;;;;;;14.50;10.45;;;;;;;;;;5069166;28;20041;-80
2022/04/24 00:46:00;;;;;;;15.38;10.85;;;;;;;;;;5063520;28;20029;-81
2022/04/24 00:48:27;;;;;;;15.52;10.73;;;;;;;;;;5066901;28;20051;-81
2022/04/24 00:50:53;;;;;;;14.55;11.05;;;;;;;;;;5065568;28;20037;-81
2022/04/24 00:53:19;;;;;;;13.73;10.82;;;;;;;;;;5064580;28;20097;-81
2022/04/24 00:55:45;;;;;;;15.88;11.63;;;;;;;;;;5064799;28;20100;-81
2022/04/24 00:58:11;;;;;;;14.77;11.70;;;;;;;;;;5064349;28;20028;-80
2022/04/24 01:00:38;;;;;;;22.33;12.10;;;;;;;;;;5066166;28;20205;-81
2022/04/24 01:03:05;;;;;;;15.82;11.77;;;;;;;;;;5066415;28;20108;-81
2022/04/24 01:05:31;;;;;;;16.52;12.23;;;;;;;;;;5047815;28;20057;-80
2022/04/24 01:07:57;;;;;;;14.48;11.57;;;;;;;;;;5047348;28;20086;-79
2022/04/24 01:10:23;;;;;;;21.55;13.05;;;;;;;;;;5064111;28;20094;-80
2022/04/24 01:12:49;;;;;;;19.60;12.45;;;;;;;;;;5062810;28;20036;-81
2022/04/24 01:15:15;;;;;;;15.48;12.27;;;;;;;;;;5045578;28;20515;-81
2022/04/24 01:17:41;;;;;;;17.58;12.13;;;;;;;;;;5055092;28;20033;-81
2022/04/24 01:20:07;;;;;;;19.52;13.40;;;;;;;;;;5054746;28;20102;-80
2022/04/24 01:22:33;;;;;;;18.58;13.43;;;;;;;;;;5047305;28;20124;-81
2022/04/24 01:24:59;;;;;;;18.85;14.15;;;;;;;;;;5055778;28;20029;-81
2022/04/24 01:27:26;;;;;;;18.63;14.38;;;;;;;;;;5059266;28;20040;-81
2022/04/24 01:29:52;;;;;;;21.50;14.85;;;;;;;;;;5061997;28;20552;-79
2022/04/24 01:32:18;;;;;;;23.10;14.80;;;;;;;;;;5061490;28;20071;-81
2022/04/24 01:34:44;;;;;;;22.10;15.82;;;;;;;;;;5060376;28;20183;-79
2022/04/24 01:37:10;;;;;;;22.52;15.88;;;;;;;;;;5045081;28;20207;-79
2022/04/24 01:39:36;;;;;;;21.33;16.30;;;;;;;;;;5061534;28;20484;-81
2022/04/24 01:42:02;;;;;;;27.30;16.75;;;;;;;;;;5045473;28;20087;-80
2022/04/24 01:44:28;;;;;;;25.52;16.70;;;;;;;;;;5050840;28;20161;-80
2022/04/24 01:46:54;;;;;;;25.20;17.90;;;;;;;;;;5063382;28;20024;-80
2022/04/24 01:49:20;;;;;;;31.85;17.75;;;;;;;;;;5064819;28;20060;-80
2022/04/24 01:51:48;;;;;;;23.67;17.45;;;;;;;;;;5058399;28;20134;-81
2022/04/24 01:54:14;;;;;;;23.40;17.60;;;;;;;;;;5064586;28;20043;-81
2022/04/24 01:56:40;;;;;;;29.27;17.83;;;;;;;;;;5056656;28;20208;-80
2022/04/24 01:59:07;;;;;;;27.80;18.17;;;;;;;;;;5046356;28;20422;-81
2022/04/24 02:01:33;;;;;;;26.25;18.10;;;;;;;;;;5054142;28;20539;-81
2022/04/24 02:03:59;;;;;;;28.65;18.88;;;;;;;;;;5053030;28;20029;-80
2022/04/24 02:06:27;;;;;;;26.20;17.77;;;;;;;;;;5036371;28;20411;-80
2022/04/24 02:08:52;;;;;;;26.85;18.90;;;;;;;;;;5050521;28;20479;-79
2022/04/24 02:11:19;;;;;;;25.92;19.15;;;;;;;;;;5052881;28;21180;-80
2022/04/24 02:13:45;;;;;;;29.02;19.02;;;;;;;;;;5050993;28;20103;-80
2022/04/24 02:16:11;;;;;;;26.10;18.60;;;;;;;;;;5059789;28;20091;-79
2022/04/24 02:18:37;;;;;;;29.08;19.10;;;;;;;;;;5035627;28;20037;-81
2022/04/24 02:21:03;;;;;;;28.77;18.27;;;;;;;;;;5051907;28;20471;-80
2022/04/24 02:23:29;;;;;;;29.55;19.20;;;;;;;;;;5051536;28;20036;-80
2022/04/24 02:25:55;;;;;;;27.95;19.23;;;;;;;;;;5053596;28;20426;-81
2022/04/24 02:28:21;;;;;;;29.42;18.20;;;;;;;;;;5037557;28;20144;-80
2022/04/24 02:30:47;;;;;;;25.83;17.42;;;;;;;;;;5055011;28;20101;-82
2022/04/24 02:33:13;;;;;;;28.05;18.60;;;;;;;;;;5056556;28;20058;-80
2022/04/24 02:35:39;;;;;;;30.17;18.77;;;;;;;;;;5053099;28;20040;-83
2022/04/24 02:38:05;;;;;;;30.25;19.65;;;;;;;;;;5056009;28;20105;-80
2022/04/24 02:40:31;;;;;;;26.80;17.13;;;;;;;;;;5036679;28;20036;-81
2022/04/24 02:42:57;;;;;;;27.35;17.85;;;;;;;;;;5054012;28;20013;-79
2022/04/24 02:45:23;;;;;;;32.10;18.17;;;;;;;;;;5055703;28;20037;-79
2022/04/24 02:47:49;;;;;;;24.70;17.10;;;;;;;;;;5053474;28;20104;-79
2022/04/24 02:50:16;;;;;;;25.02;17.27;;;;;;;;;;5034870;28;20537;-80
2022/04/24 02:52:46;;;;;;;25.80;17.75;;;;;;;;;;5034964;28;20029;-80
2022/04/24 02:55:12;;;;;;;32.95;18.00;;;;;;;;;;5056516;28;20051;-81
2022/04/24 02:57:38;;;;;;;25.10;17.25;;;;;;;;;;5058833;28;20020;-80
2022/04/24 03:00:04;;;;;;;23.80;16.35;;;;;;;;;;5057783;28;20039;-78
2022/04/24 03:02:30;;;;;;;27.83;16.65;;;;;;;;;;5061649;28;20110;-79
2022/04/24 03:04:56;;;;;;;23.60;16.35;;;;;;;;;;5040596;28;20063;-79
2022/04/24 03:07:22;;;;;;;23.83;16.63;;;;;;;;;;5055437;28;20020;-80
2022/04/24 03:09:48;;;;;;;25.45;16.60;;;;;;;;;;5052082;28;20084;-81
2022/04/24 03:12:14;;;;;;;24.67;16.88;;;;;;;;;;5057515;28;20032;-80
2022/04/24 03:14:40;;;;;;;24.77;17.00;;;;;;;;;;5040035;28;20089;-83
2022/04/24 03:17:06;;;;;;;29.85;16.52;;;;;;;;;;5059128;28;20037;-81
2022/04/24 03:19:32;;;;;;;22.05;15.88;;;;;;;;;;5056345;28;20025;-82
2022/04/24 03:21:58;;;;;;;22.25;14.95;;;;;;;;;;5058087;28;20036;-79
2022/04/24 03:24:24;;;;;;;23.42;14.63;;;;;;;;;;5062639;28;20044;-79
2022/04/24 03:26:50;;;;;;;22.90;15.38;;;;;;;;;;5058357;28;20071;-80
2022/04/24 03:29:17;;;;;;;23.40;15.40;;;;;;;;;;5055928;28;20032;-79
2022/04/24 03:31:43;;;;;;;20.33;14.15;;;;;;;;;;5054452;28;20032;-80
2022/04/24 03:34:09;;;;;;;22.63;14.52;;;;;;;;;;5040890;28;20028;-80
2022/04/24 03:36:35;;;;;;;24.95;15.60;;;;;;;;;;5036778;28;21059;-79
2022/04/24 03:39:01;;;;;;;26.20;15.10;;;;;;;;;;5052751;28;20056;-81
2022/04/24 03:41:27;;;;;;;21.40;14.75;;;;;;;;;;5036237;28;20020;-81
2022/04/24 03:43:53;;;;;;;23.88;15.50;;;;;;;;;;5060688;28;20142;-81
2022/04/24 03:46:19;;;;;;;20.42;14.48;;;;;;;;;;5055616;28;20419;-80
2022/04/24 03:48:46;;;;;;;24.88;15.10;;;;;;;;;;5057320;28;20059;-79
2022/04/24 03:51:12;;;;;;;23.88;15.02;;;;;;;;;;5054687;28;20039;-79
2022/04/24 03:53:38;;;;;;;19.88;14.25;;;;;;;;;;5056204;28;20033;-78
2022/04/24 03:56:04;;;;;;;20.52;14.20;;;;;;;;;;5035476;28;20064;-80
2022/04/24 03:58:30;;;;;;;19.85;14.30;;;;;;;;;;5051140;28;20354;-77
2022/04/24 04:00:56;;;;;;;21.55;14.52;;;;;;;;;;5050544;28;20036;-81
2022/04/24 04:03:22;;;;;;;19.15;13.55;;;;;;;;;;5035260;28;20021;-81
2022/04/24 04:05:48;;;;;;;18.30;13.55;;;;;;;;;;5042177;28;20075;-80
2022/04/24 04:08:14;;;;;;;20.65;13.88;;;;;;;;;;5030360;28;20025;-80
2022/04/24 04:10:40;;;;;;;22.70;14.80;;;;;;;;;;5035701;28;20104;-80
2022/04/24 04:13:07;;;;;;;20.48;14.38;;;;;;;;;;5015078;28;20124;-81
2022/04/24 04:15:33;;;;;;;23.58;13.95;;;;;;;;;;5033524;28;20049;-81
2022/04/24 04:17:59;;;;;;;24.75;14.15;;;;;;;;;;5017351;28;20124;-80
2022/04/24 04:20:26;;;;;;;19.98;13.93;;;;;;;;;;5033171;28;20116;-79
2022/04/24 04:22:52;;;;;;;19.65;14.32;;;;;;;;;;5033949;28;20040;-81
2022/04/24 04:25:21;;;;;;;20.08;14.10;;;;;;;;;;5031866;28;20037;-81
2022/04/24 04:27:48;;;;;;;22.45;14.15;;;;;;;;;;5030890;28;20075;-81
2022/04/24 04:30:14;;;;;;;20.70;14.60;;;;;;;;;;5014124;28;20061;-80
2022/04/24 04:32:40;;;;;;;22.58;13.40;;;;;;;;;;5031915;28;20025;-81
2022/04/24 04:35:09;;;;;;;19.63;13.77;;;;;;;;;;5021735;28;20461;-80
2022/04/24 04:37:35;;;;;;;24.17;14.30;;;;;;;;;;5015266;28;20033;-80
2022/04/24 04:40:02;;;;;;;22.40;14.32;;;;;;;;;;5030925;28;20112;-80
2022/04/24 04:42:28;;;;;;;19.83;13.85;;;;;;;;;;5029499;28;20030;-81
2022/04/24 04:44:56;;;;;;;18.73;12.68;;;;;;;;;;5034296;28;20482;-80
2022/04/24 04:47:22;;;;;;;19.80;13.70;;;;;;;;;;5040101;28;20112;-79
2022/04/24 04:49:48;;;;;;;17.48;12.65;;;;;;;;;;5035447;28;20037;-82
2022/04/24 04:52:14;;;;;;;20.10;13.70;;;;;;;;;;5040070;28;21528;-80
2022/04/24 04:54:40;;;;;;;19.52;13.13;;;;;;;;;;5036394;28;20606;-81
2022/04/24 04:57:07;;;;;;;19.17;13.43;;;;;;;;;;5040304;28;20503;-80
2022/04/24 04:59:33;;;;;;;20.20;12.90;;;;;;;;;;5039530;28;20022;-79
2022/04/24 05:01:59;;;;;;;20.02;12.30;;;;;;;;;;5042238;28;20387;-79
2022/04/24 05:04:25;;;;;;;18.08;12.63;;;;;;;;;;5025592;28;21177;-80
2022/04/24 05:06:51;;;;;;;18.80;12.63;;;;;;;;;;5039121;28;20056;-81
2022/04/24 05:09:18;;;;;;;19.38;12.32;;;;;;;;;;5040739;28;20068;-82
2022/04/24 05:11:44;;;;;;;16.63;11.55;;;;;;;;;;5041291;28;20447;-81
2022/04/24 05:14:10;;;;;;;17.52;11.10;;;;;;;;;;5045402;28;20044;-81
2022/04/24 05:16:36;;;;;;;14.77;10.65;;;;;;;;;;5039423;28;20056;-80
2022/04/24 05:19:03;;;;;;;14.15;10.25;;;;;;;;;;5011925;28;20036;-80
2022/04/24 05:21:29;;;;;;;15.98;10.23;;;;;;;;;;5038067;28;20138;-80
2022/04/24 05:23:55;;;;;;;15.30;10.10;;;;;;;;;;5043372;28;20142;-79
2022/04/24 05:26:21;;;;;;;14.40;10.73;;;;;;;;;;5037894;28;20167;-81
2022/04/24 05:28:47;;;;;;;19.23;10.25;;;;;;;;;;5039955;28;20090;-80
2022/04/24 05:31:14;;;;;;;13.18;10.50;;;;;;;;;;5039330;28;20045;-80
2022/04/24 05:33:40;;;;;;;17.42;10.73;;;;;;;;;;5041966;28;20032;-80
2022/04/24 05:36:06;;;;;;;14.40;9.95;;;;;;;;;;5025388;28;20028;-81
2022/04/24 05:38:32;;;;;;;12.15;9.98;;;;;;;;;;5040228;28;20120;-80
2022/04/24 05:40:58;;;;;;;13.43;9.50;;;;;;;;;;5042979;28;20028;-80
2022/04/24 05:43:24;;;;;;;13.18;9.40;;;;;;;;;;5015571;28;20036;-81
2022/04/24 05:45:50;;;;;;;13.77;9.40;;;;;;;;;;5040938;28;20363;-79
2022/04/24 05:48:18;;;;;;;13.48;9.70;;;;;;;;;;5036255;28;20526;-80
2022/04/24 05:50:44;;;;;;;13.75;9.65;;;;;;;;;;5033568;28;20062;-78
2022/04/24 05:53:11;;;;;;;12.70;9.85;;;;;;;;;;5034915;28;20030;-76
2022/04/24 05:55:37;;;;;;;12.88;9.40;;;;;;;;;;5036507;28;20540;-79
2022/04/24 05:58:03;;;;;;;15.15;9.50;;;;;;;;;;5035198;28;20060;-78
2022/04/24 06:00:29;;;;;;;15.70;9.13;;;;;;;;;;5034037;28;20033;-80
2022/04/24 06:02:55;;;;;;;10.93;8.77;;;;;;;;;;5040240;28;20029;-79
2022/04/24 06:05:21;;;;;;;14.57;9.55;;;;;;;;;;5044044;28;20058;-79
2022/04/24 06:07:47;;;;;;;13.30;9.30;;;;;;;;;;5038408;28;20025;-79
2022/04/24 06:10:13;;;;;;;12.18;9.00;;;;;;;;;;5042164;28;20029;-77
2022/04/24 06:12:47;;;;;;;17.73;8.88;;;;;;;;;;5037663;28;20432;-80
2022/04/24 06:15:15;;;;;;;14.55;9.25;;;;;;;;;;5041744;28;20378;-78
2022/04/24 06:17:46;;;;;;;15.57;9.40;;;;;;;;;;5036796;28;20093;-78
2022/04/24 06:20:13;;;;;;;;;;;;;;;;;;5024447;28;20041;-80
2022/04/24 06:22:45;;;;;;;13.02;9.00;;;;;;;;;;5037274;28;19913;-81
2022/04/24 06:25:15;;;;;;;12.43;8.38;;;;;;;;;;5036940;28;20132;-81
2022/04/24 06:27:42;;;;;;;10.87;8.90;;;;;;;;;;5036636;28;20034;-80
2022/04/24 06:30:08;;;;;;;14.45;8.63;;;;;;;;;;5035655;28;20494;-81
2022/04/24 06:32:38;;;;;;;17.05;9.45;;;;;;;;;;5033031;28;20144;-79
2022/04/24 06:35:05;;;;;;;15.63;8.93;;;;;;;;;;5037831;28;20074;-81
2022/04/24 06:37:31;;;;;;;16.70;8.15;;;;;;;;;;5030810;28;20111;-80
2022/04/24 06:39:57;;;;;;;13.02;8.75;;;;;;;;;;5031890;28;20487;-80
2022/04/24 06:42:23;;;;;;;13.40;8.38;;;;;;;;;;5033349;28;20021;-78
2022/04/24 06:44:49;;;;;;;11.07;8.45;;;;;;;;;;5035180;28;20037;-80
2022/04/24 06:47:15;;;;;;;14.55;8.70;;;;;;;;;;5035684;28;20033;-80
2022/04/24 06:49:41;;;;;;;12.35;8.60;;;;;;;;;;5038545;28;20042;-81
2022/04/24 06:52:07;;;;;;;10.55;8.23;;;;;;;;;;5038505;28;20036;-79
2022/04/24 06:54:33;;;;;;;10.68;7.95;;;;;;;;;;5036741;28;20191;-80
2022/04/24 06:57:01;;;;;;;11.77;8.30;;;;;;;;;;5039634;28;20103;-78
2022/04/24 06:59:28;;;;;;;15.48;8.57;;;;;;;;;;5037113;28;20363;-81
2022/04/24 07:01:54;;;;;;;11.30;8.73;;;;;;;;;;5039133;28;20366;-79
2022/04/24 07:04:20;;;;;;;13.43;8.85;;;;;;;;;;5037745;28;20040;-78
2022/04/24 07:06:46;;;;;;;15.95;9.60;;;;;;;;;;5014100;28;20057;-75
2022/04/24 07:09:13;;;;;;;13.35;9.50;;;;;;;;;;5029657;28;20154;-76
2022/04/24 07:11:40;;;;;;;16.55;9.75;;;;;;;;;;5034007;28;20438;-76
2022/04/24 07:14:06;;;;;;;13.82;8.57;;;;;;;;;;5037243;28;20036;-75
2022/04/24 07:16:36;;;;;;;12.18;8.52;;;;;;;;;;5039811;28;20282;-77
2022/04/24 07:19:02;;;;;;;12.88;8.77;;;;;;;;;;5041079;28;20507;-77
2022/04/24 07:21:28;;;;;;;17.13;8.80;;;;;;;;;;5042781;28;20081;-75
2022/04/24 07:23:54;;;;;;;13.07;8.55;;;;;;;;;;5041833;28;20041;-76
2022/04/24 07:26:20;;;;;;;11.57;8.00;;;;;;;;;;5036475;28;20543;-76
2022/04/24 07:28:46;;;;;;;14.48;9.13;;;;;;;;;;5025553;28;20044;-77
2022/04/24 07:31:14;;;;;;;13.55;9.35;;;;;;;;;;5042277;28;20025;-79
2022/04/24 07:33:40;;;;;;;12.43;9.38;;;;;;;;;;5029094;28;20486;-76
2022/04/24 07:36:07;;;;;;;14.80;9.30;;;;;;;;;;5037998;28;20044;-76
2022/04/24 07:38:32;;;;;;;11.27;8.88;;;;;;;;;;5047680;28;20021;-76
2022/04/24 07:40:59;;;;;;;11.50;8.93;;;;;;;;;;5047409;28;20036;-76
2022/04/24 07:43:25;;;;;;;13.48;9.27;;;;;;;;;;5042184;28;20037;-77
2022/04/24 07:45:51;;;;;;;13.55;8.75;;;;;;;;;;5041397;28;20033;-77
2022/04/24 07:48:17;;;;;;;14.75;8.88;;;;;;;;;;5036919;28;20032;-76
2022/04/24 07:50:45;;;;;;;13.20;8.85;;;;;;;;;;5037542;28;20131;-77
2022/04/24 07:53:11;;;;;;;11.02;8.77;;;;;;;;;;5036556;28;20029;-76
2022/04/24 07:55:37;;;;;;;12.02;9.25;;;;;;;;;;5039535;28;20032;-77
2022/04/24 07:58:03;;;;;;;11.20;9.02;;;;;;;;;;5051657;28;20025;-78
2022/04/24 08:00:31;;;;;;;13.50;9.15;;;;;;;;;;5048912;28;20013;-77
2022/04/24 08:03:00;;;;;;;12.80;8.93;;;;;;;;;;5034435;28;20037;-77
2022/04/24 08:05:46;;;;;;;12.73;8.90;;;;;;;;;;5037703;28;20095;-77
2022/04/24 08:08:14;;;;;;;12.13;8.95;;;;;;;;;;5050406;28;20025;-77
2022/04/24 08:10:41;;;;;;;18.27;9.00;;;;;;;;;;5053102;28;20093;-76
2022/04/24 08:13:08;;;;;;;12.13;9.23;;;;;;;;;;5054645;28;20060;-77
2022/04/24 08:15:35;;;;;;;13.80;8.20;;;;;;;;;;5053213;28;20033;-77
2022/04/24 08:18:02;;;;;;;11.45;7.72;;;;;;;;;;5057789;28;20032;-76
2022/04/24 08:20:28;;;;;;;12.90;7.88;;;;;;;;;;5056704;28;20059;-76
2022/04/24 08:22:55;;;;;;;12.27;8.93;;;;;;;;;;5051179;28;20498;-76
2022/04/24 08:25:22;;;;;;;12.45;8.45;;;;;;;;;;5056004;28;20367;-76
2022/04/24 08:27:49;;;;;;;9.98;8.20;;;;;;;;;;5057945;28;20084;-77
2022/04/24 08:30:15;;;;;;;16.17;8.80;;;;;;;;;;5058314;28;20107;-77
2022/04/24 08:32:42;;;;;;;9.80;8.40;;;;;;;;;;5042043;28;20040;-77
2022/04/24 08:35:09;;;;;;;10.98;8.55;;;;;;;;;;5062898;28;20551;-76
2022/04/24 08:37:35;;;;;;;10.55;8.23;;;;;;;;;;5056335;28;20033;-76
2022/04/24 08:40:01;;;;;;;14.13;7.78;;;;;;;;;;5058083;28;20028;-77
2022/04/24 08:42:28;;;;;;;13.70;8.30;;;;;;;;;;5058114;28;20120;-78
2022/04/24 08:44:57;;;;;;;11.02;8.05;;;;;;;;;;5061806;28;20029;-77
2022/04/24 08:47:24;;;;;;;12.10;7.75;;;;;;;;;;5063758;28;20073;-77
2022/04/24 08:50:00;;;;;;;12.13;7.82;;;;;;;;;;5063337;28;20033;-77
2022/04/24 08:52:27;;;;;;;11.75;8.35;;;;;;;;;;5060624;28;20041;-76
2022/04/24 08:54:54;;;;;;;11.75;8.02;;;;;;;;;;5065846;28;20073;-77
2022/04/24 08:57:21;;;;;;;10.43;7.68;;;;;;;;;;5061758;28;20182;-78
2022/04/24 08:59:48;;;;;;;10.10;7.72;;;;;;;;;;5063807;28;20116;-76
2022/04/24 09:02:14;;;;;;;9.93;8.23;;;;;;;;;;5071077;28;20396;-77
2022/04/24 09:04:40;;;;;;;11.63;8.20;;;;;;;;;;5062185;28;20036;-77
2022/04/24 09:07:07;;;;;;;14.63;7.68;;;;;;;;;;5067033;28;20040;-77
2022/04/24 09:09:41;;;;;;;10.35;7.90;;;;;;;;;;5064610;28;20035;-76
2022/04/24 09:12:08;;;;;;;11.52;7.22;;;;;;;;;;5061172;28;20078;-76
2022/04/24 09:14:34;;;;;;;11.13;7.97;;;;;;;;;;5057285;28;20040;-76
2022/04/24 09:17:04;;;;;;;10.02;7.85;;;;;;;;;;5060098;28;20028;-76
2022/04/24 09:19:30;;;;;;;12.85;7.88;;;;;;;;;;5057006;28;20410;-75
2022/04/24 09:22:06;;;;;;;12.15;7.68;;;;;;;;;;5062034;28;20029;-76
2022/04/24 09:24:41;;;;;;;13.13;8.77;;;;;;;;;;5057150;28;20067;-76
2022/04/24 09:27:07;;;;;;;11.38;7.47;;;;;;;;;;5060155;28;20085;-76
2022/04/24 09:29:33;;;;;;;9.90;7.20;;;;;;;;;;5062696;28;20560;-76
2022/04/24 09:31:59;;;;;;;15.07;7.40;;;;;;;;;;5066246;28;20081;-76
2022/04/24 09:34:31;;;;;;;10.20;7.60;;;;;;;;;;5067283;28;20040;-76
2022/04/24 09:37:01;;;;;;;11.38;7.82;;;;;;;;;;5057435;28;20495;-76
2022/04/24 09:39:34;;;;;;;13.93;8.27;;;;;;;;;;5058714;28;20024;-76
2022/04/24 09:42:03;;;;;;;13.55;7.55;;;;;;;;;;5058634;28;20108;-76
2022/04/24 09:44:36;;;;;;;12.02;7.82;;;;;;;;;;5062008;28;20074;-75
2022/04/24 09:47:03;;;;;;;16.77;8.15;;;;;;;;;;5055728;28;20081;-76
2022/04/24 09:49:31;;;;;;;9.13;7.88;;;;;;;;;;5036660;28;20078;-75
2022/04/24 09:51:58;;;;;;;11.10;8.02;;;;;;;;;;5061010;28;20028;-76
2022/04/24 09:54:24;;;;;;;13.55;8.82;;;;;;;;;;5059010;28;20037;-76
2022/04/24 09:56:52;;;;;;;9.65;8.18;;;;;;;;;;5059797;28;20405;-76
2022/04/24 09:59:19;;;;;;;10.45;7.82;;;;;;;;;;5056437;28;20112;-76
2022/04/24 10:01:47;;;;;;;13.25;8.20;;;;;;;;;;5064508;28;20040;-75
2022/04/24 10:04:13;;;;;;;13.55;9.77;;;;;;;;;;5040468;28;20108;-76
2022/04/24 10:06:43;;;;;;;12.50;9.10;;;;;;;;;;5058725;28;20191;-76
2022/04/24 10:09:10;;;;;;;12.77;8.77;;;;;;;;;;5055033;28;20536;-76
2022/04/24 10:11:36;;;;;;;12.65;8.35;;;;;;;;;;5059261;28;20673;-76
2022/04/24 10:14:04;;;;;;;12.65;7.57;;;;;;;;;;5059108;28;20568;-76
2022/04/24 10:16:39;;;;;;;12.35;8.35;;;;;;;;;;5055099;28;20035;-75
2022/04/24 10:19:23;;;;;;;14.32;9.15;;;;;;;;;;5058175;28;20396;-76
2022/04/24 10:21:55;;;;;;;17.35;8.60;;;;;;;;;;5056907;28;20037;-76
2022/04/24 10:24:21;;;;;;;12.90;7.78;;;;;;;;;;5056594;28;20032;-77
2022/04/24 10:26:54;;;;;;;23.05;10.15;;;;;;;;;;5053367;28;20114;-75
2022/04/24 10:29:21;;;;;;;10.23;8.82;;;;;;;;;;5059034;28;20093;-77
2022/04/24 10:31:48;;;;;;;14.65;8.52;;;;;;;;;;5055401;28;20472;-76
2022/04/24 10:34:14;;;;;;;14.48;8.85;;;;;;;;;;5061249;28;20033;-76
2022/04/24 10:36:59;;;;;;;14.90;9.50;;;;;;;;;;5053596;28;20093;-76
2022/04/24 10:39:27;;;;;;;14.77;9.32;;;;;;;;;;5042562;28;20036;-78
2022/04/24 10:41:57;;;;;;;10.88;8.82;;;;;;;;;;5056786;28;20085;-75
2022/04/24 10:44:24;;;;;;;14.60;8.55;;;;;;;;;;5052111;28;20028;-77
2022/04/24 10:46:51;;;;;;;15.43;8.75;;;;;;;;;;5058153;28;20458;-76
2022/04/24 10:49:18;;;;;;;16.45;8.73;;;;;;;;;;5053895;28;20043;-75
2022/04/24 10:51:59;;;;;;;10.90;8.43;;;;;;;;;;5059021;28;20037;-76
2022/04/24 10:54:35;;;;;;;18.38;8.48;;;;;;;;;;5055738;28;20033;-76
2022/04/24 10:57:02;;;;;;;18.30;8.70;;;;;;;;;;5058688;28;20036;-76
2022/04/24 10:59:42;;;;;;;16.23;8.40;;;;;;;;;;5061263;28;20043;-76
2022/04/24 11:02:09;;;;;;;9.52;8.23;;;;;;;;;;5067432;28;20036;-76
2022/04/24 11:04:39;;;;;;;10.82;7.70;;;;;;;;;;5061843;28;20041;-75
2022/04/24 11:07:06;;;;;;;9.57;7.72;;;;;;;;;;5065187;28;20053;-76
2022/04/24 11:09:36;;;;;;;18.90;9.20;;;;;;;;;;5062234;28;20037;-75
2022/04/24 11:12:07;;;;;;;12.87;7.90;;;;;;;;;;5061070;28;20044;-76
2022/04/24 11:14:34;;;;;;;15.25;7.82;;;;;;;;;;5064937;28;20036;-76
2022/04/24 11:17:00;;;;;;;12.23;8.38;;;;;;;;;;5058159;28;20048;-75
2022/04/24 11:19:34;;;;;;;10.80;7.80;;;;;;;;;;5059258;28;20145;-76
2022/04/24 11:22:04;;;;;;;12.75;8.30;;;;;;;;;;5062408;28;20031;-77
2022/04/24 11:24:31;;;;;;;16.45;8.05;;;;;;;;;;5054858;28;20540;-77
2022/04/24 11:27:11;;;;;;;11.38;7.47;;;;;;;;;;5057726;28;20025;-77
2022/04/24 11:29:37;;;;;;;11.43;7.50;;;;;;;;;;5060462;28;20025;-76
2022/04/24 11:32:07;;;;;;;18.77;8.82;;;;;;;;;;5064933;28;20093;-78
2022/04/24 11:34:34;;;;;;;19.27;8.50;;;;;;;;;;5088346;28;20032;-77
2022/04/24 11:37:00;;;;;;;11.00;7.15;;;;;;;;;;5088426;28;20470;-76
2022/04/24 11:39:26;;;;;;;13.85;7.75;;;;;;;;;;5090274;28;20051;-75
2022/04/24 11:41:53;;;;;;;11.63;8.30;;;;;;;;;;5085783;28;20446;-77
2022/04/24 11:52:38;;;;;;;8.95;6.18;;;;;;;;;;5070249;28;20048;-77
2022/04/24 11:55:05;;;;;;;11.57;6.80;;;;;;;;;;5068907;28;20056;-75
2022/04/24 11:57:32;;;;;;;12.18;7.40;;;;;;;;;;5069695;28;20108;-76
2022/04/24 11:59:58;;;;;;;10.25;6.75;;;;;;;;;;5069525;28;20040;-75
2022/04/24 12:02:25;;;;;;;9.73;6.57;;;;;;;;;;5062127;28;20501;-77
2022/04/24 12:04:52;;;;;;;8.82;6.00;;;;;;;;;;5048008;28;20021;-76
2022/04/24 12:07:18;;;;;;;9.25;6.00;;;;;;;;;;5061180;28;20059;-76
2022/04/24 12:09:44;;;;;;;12.30;6.38;;;;;;;;;;5071865;28;20085;-77
2022/04/24 12:12:15;;;;;;;8.00;5.55;;;;;;;;;;5059073;28;20033;-77
2022/04/24 12:14:42;;;;;;;11.60;5.57;;;;;;;;;;5032086;28;20052;-77
2022/04/24 12:17:11;;;;;;;9.60;5.50;;;;;;;;;;5031797;28;20124;-77
2022/04/24 12:19:40;;;;;;;10.18;5.65;;;;;;;;;;5032065;28;20087;-77
2022/04/24 12:22:13;;;;;;;9.93;5.38;;;;;;;;;;5035961;28;20025;-76
2022/04/24 12:24:41;;;;;;;7.55;5.68;;;;;;;;;;5052167;28;20167;-77
2022/04/24 12:27:09;;;;;;;13.55;6.40;;;;;;;;;;5051205;28;20435;-77
2022/04/24 12:29:43;;;;;;;10.98;5.63;;;;;;;;;;5052043;28;20029;-76
2022/04/24 12:32:12;;;;;;;7.97;4.72;;;;;;;;;;5051289;28;20032;-77
2022/04/24 12:34:38;;;;;;;12.95;6.10;;;;;;;;;;5043659;28;20038;-76
2022/04/24 12:37:05;;;;;;;6.13;5.05;;;;;;;;;;5031411;28;20250;-76
2022/04/24 12:39:32;;;;;;;9.20;5.32;;;;;;;;;;5031366;28;20112;-76
2022/04/24 12:41:59;;;;;;;7.82;4.70;;;;;;;;;;5031517;28;20053;-76
2022/04/24 12:44:25;;;;;;;6.97;4.75;;;;;;;;;;5041355;28;20025;-75
2022/04/24 12:46:51;;;;;;;7.75;4.13;;;;;;;;;;5062384;28;20044;-77
2022/04/24 12:49:31;;;;;;;6.18;4.30;;;;;;;;;;5068560;28;20088;-75
2022/04/24 12:51:58;;;;;;;8.82;4.78;;;;;;;;;;5068251;28;20052;-76
2022/04/24 12:54:24;;;;;;;9.48;4.93;;;;;;;;;;5068320;28;20040;-77
2022/04/24 12:56:50;;;;;;;8.60;5.10;;;;;;;;;;5032522;28;20109;-76
2022/04/24 12:59:16;;;;;;;8.07;5.38;;;;;;;;;;5067073;28;20107;-77
2022/04/24 13:01:44;;;;;;;10.15;5.28;;;;;;;;;;5063022;28;20036;-77
2022/04/24 13:04:10;;;;;;;6.80;4.90;;;;;;;;;;5066428;28;20095;-77
2022/04/24 13:06:36;;;;;;;10.13;4.47;;;;;;;;;;5080874;28;20048;-76
2022/04/24 13:09:03;;;;;;;6.50;4.40;;;;;;;;;;5080379;28;20066;-76
2022/04/24 13:11:29;;;;;;;9.75;5.15;;;;;;;;;;5083593;28;20063;-77
2022/04/24 13:13:55;;;;;;;7.85;4.30;;;;;;;;;;5090128;28;20044;-77
2022/04/24 13:19:09;;;;;;;8.68;4.90;;;;;;;;;;5088689;28;20058;-77
2022/04/24 13:21:35;;;;;;;19.33;5.32;;;;;;;;;;5090155;28;20036;-74
2022/04/24 13:24:01;;;;;;;9.95;4.80;;;;;;;;;;5065463;28;20052;-77
2022/04/24 13:26:27;;;;;;;9.13;4.47;;;;;;;;;;5091069;28;20035;-76
2022/04/24 13:28:53;;;;;;;6.47;4.50;;;;;;;;;;5090624;28;20067;-76
2022/04/24 13:31:19;;;;;;;9.32;4.28;;;;;;;;;;5044803;28;20357;-78
2022/04/24 13:33:45;;;;;;;8.88;4.90;;;;;;;;;;5081613;28;20066;-77
2022/04/24 13:36:13;;;;;;;10.27;5.03;;;;;;;;;;5073703;28;20040;-76
2022/04/24 13:38:39;;;;;;;8.13;4.50;;;;;;;;;;5092037;28;20036;-76
2022/04/24 13:41:05;;;;;;;14.32;4.70;;;;;;;;;;5091546;28;20534;-75
2022/04/24 13:43:34;;;;;;;7.90;4.78;;;;;;;;;;5088815;28;20028;-78
2022/04/24 13:46:00;;;;;;;7.43;4.25;;;;;;;;;;5092881;28;20398;-77
2022/04/24 13:48:27;;;;;;;6.80;4.57;;;;;;;;;;5091213;28;20035;-76
2022/04/24 13:50:54;;;;;;;8.50;4.90;;;;;;;;;;5091832;28;20024;-76
2022/04/24 13:53:20;;;;;;;7.32;4.53;;;;;;;;;;5091227;28;20115;-75
2022/04/24 13:55:46;;;;;;;5.78;4.38;;;;;;;;;;5088389;28;20044;-77
2022/04/24 13:58:14;;;;;;;8.43;4.50;;;;;;;;;;5079651;28;20032;-77
2022/04/24 14:00:42;;;;;;;5.90;4.05;;;;;;;;;;5084386;28;20115;-76
2022/04/24 14:03:08;;;;;;;8.48;4.10;;;;;;;;;;5091684;28;20122;-76
2022/04/24 14:05:34;;;;;;;4.80;3.72;;;;;;;;;;5090614;28;20052;-76
2022/04/24 14:08:00;;;;;;;8.13;3.45;;;;;;;;;;5087121;28;20035;-77
2022/04/24 14:10:27;;;;;;;8.60;3.35;;;;;;;;;;5091990;28;20028;-77
2022/04/24 14:12:53;;;;;;;7.65;3.60;;;;;;;;;;5090757;28;20106;-77
2022/04/24 14:15:25;;;;;;;8.55;3.60;;;;;;;;;;5090115;28;20584;-77
2022/04/24 14:17:55;;;;;;;8.18;3.75;;;;;;;;;;5068294;28;20089;-76
2022/04/24 14:20:21;;;;;;;9.60;4.10;;;;;;;;;;5084729;28;20115;-76
2022/04/24 14:22:50;;;;;;;6.88;3.60;;;;;;;;;;5088084;28;20093;-76
2022/04/24 14:25:17;;;;;;;6.53;4.18;;;;;;;;;;5089521;28;20456;-76
2022/04/24 14:27:43;;;;;;;11.18;3.65;;;;;;;;;;5070948;28;20035;-76
2022/04/24 14:30:10;;;;;;;6.15;2.92;;;;;;;;;;5075733;28;20086;-75
2022/04/24 14:32:40;;;;;;;4.63;2.70;;;;;;;;;;5088085;28;20131;-78
2022/04/24 14:35:08;;;;;;;3.40;2.47;;;;;;;;;;5088683;28;20078;-76
2022/04/24 14:37:34;;;;;;;6.80;3.40;;;;;;;;;;5081923;28;20414;-76
2022/04/24 14:40:00;;;;;;;13.93;2.97;;;;;;;;;;5061419;28;20024;-77